sensor_id;sensor_type;location;lat;lon;timestamp;temperature;humidity
29663;DHT22;16578;53.266;7.920;2023-04-24T00:01:27;15.30;76.20
29663;DHT22;16578;53.266;7.920;2023-04-24T00:03:55;15.30;76.30
29663;DHT22;16578;53.266;7.920;2023-04-24T00:06:25;15.30;75.80
29663;DHT22;16578;53.266;7.920;2023-04-24T00:09:02;15.30;75.60
29663;DHT22;16578;53.266;7.920;2023-04-24T00:11:28;15.30;75.20
29663;DHT22;16578;53.266;7.920;2023-04-24T00:13:54;15.30;75.60
29663;DHT22;16578;53.266;7.920;2023-04-24T00:16:20;15.30;74.40
29663;DHT22;16578;53.266;7.920;2023-04-24T00:18:45;15.20;74.00
29663;DHT22;16578;53.266;7.920;2023-04-24T00:21:13;15.20;74.20
29663;DHT22;16578;53.266;7.920;2023-04-24T00:23:39;15.10;73.50
29663;DHT22;16578;53.266;7.920;2023-04-24T00:26:04;15.10;73.30
29663;DHT22;16578;53.266;7.920;2023-04-24T00:28:30;15.00;73.10
29663;DHT22;16578;53.266;7.920;2023-04-24T00:30:56;15.00;73.00
29663;DHT22;16578;53.266;7.920;2023-04-24T00:33:21;14.90;72.90
29663;DHT22;16578;53.266;7.920;2023-04-24T00:35:47;14.90;72.90
29663;DHT22;16578;53.266;7.920;2023-04-24T00:38:12;14.80;72.70
29663;DHT22;16578;53.266;7.920;2023-04-24T00:40:38;14.80;72.80
29663;DHT22;16578;53.266;7.920;2023-04-24T00:43:03;14.70;72.70
29663;DHT22;16578;53.266;7.920;2023-04-24T00:45:29;14.70;72.70
29663;DHT22;16578;53.266;7.920;2023-04-24T00:47:56;14.60;72.80
29663;DHT22;16578;53.266;7.920;2023-04-24T00:50:23;14.60;72.80
29663;DHT22;16578;53.266;7.920;2023-04-24T00:52:49;14.60;73.00
29663;DHT22;16578;53.266;7.920;2023-04-24T00:55:15;14.50;73.00
29663;DHT22;16578;53.266;7.920;2023-04-24T00:57:41;14.50;73.00
29663;DHT22;16578;53.266;7.920;2023-04-24T01:00:07;14.50;73.10
29663;DHT22;16578;53.266;7.920;2023-04-24T01:02:36;14.40;73.00
29663;DHT22;16578;53.266;7.920;2023-04-24T01:05:02;14.40;73.20
29663;DHT22;16578;53.266;7.920;2023-04-24T01:07:28;14.40;73.20
29663;DHT22;16578;53.266;7.920;2023-04-24T01:09:54;14.40;73.30
29663;DHT22;16578;53.266;7.920;2023-04-24T01:12:20;14.40;73.40
29663;DHT22;16578;53.266;7.920;2023-04-24T01:14:45;14.40;73.50
29663;DHT22;16578;53.266;7.920;2023-04-24T01:17:11;14.40;73.50
29663;DHT22;16578;53.266;7.920;2023-04-24T01:19:37;14.30;73.50
29663;DHT22;16578;53.266;7.920;2023-04-24T01:22:07;14.30;73.50
29663;DHT22;16578;53.266;7.920;2023-04-24T01:24:33;14.30;73.70
29663;DHT22;16578;53.266;7.920;2023-04-24T01:26:59;14.30;73.90
29663;DHT22;16578;53.266;7.920;2023-04-24T01:29:24;14.30;74.00
29663;DHT22;16578;53.266;7.920;2023-04-24T01:31:50;14.20;74.00
29663;DHT22;16578;53.266;7.920;2023-04-24T01:34:16;14.20;74.20
29663;DHT22;16578;53.266;7.920;2023-04-24T01:36:43;14.20;74.30
29663;DHT22;16578;53.266;7.920;2023-04-24T01:39:11;14.10;74.40
29663;DHT22;16578;53.266;7.920;2023-04-24T01:41:36;14.10;74.70
29663;DHT22;16578;53.266;7.920;2023-04-24T01:44:02;14.10;74.80
29663;DHT22;16578;53.266;7.920;2023-04-24T01:46:28;14.10;74.90
29663;DHT22;16578;53.266;7.920;2023-04-24T01:48:53;14.00;74.80
29663;DHT22;16578;53.266;7.920;2023-04-24T01:51:20;14.00;74.90
29663;DHT22;16578;53.266;7.920;2023-04-24T01:53:45;14.00;74.90
29663;DHT22;16578;53.266;7.920;2023-04-24T01:56:11;13.90;75.20
29663;DHT22;16578;53.266;7.920;2023-04-24T01:58:37;13.90;75.30
29663;DHT22;16578;53.266;7.920;2023-04-24T02:01:02;13.90;75.40
29663;DHT22;16578;53.266;7.920;2023-04-24T02:03:28;13.80;75.50
29663;DHT22;16578;53.266;7.920;2023-04-24T02:05:53;13.80;75.70
29663;DHT22;16578;53.266;7.920;2023-04-24T02:08:19;13.80;75.60
29663;DHT22;16578;53.266;7.920;2023-04-24T02:10:45;13.80;75.70
29663;DHT22;16578;53.266;7.920;2023-04-24T02:13:10;13.80;76.00
29663;DHT22;16578;53.266;7.920;2023-04-24T02:15:36;13.80;75.90
29663;DHT22;16578;53.266;7.920;2023-04-24T02:18:01;13.80;75.80
29663;DHT22;16578;53.266;7.920;2023-04-24T02:20:27;13.80;75.90
29663;DHT22;16578;53.266;7.920;2023-04-24T02:22:53;13.80;75.90
29663;DHT22;16578;53.266;7.920;2023-04-24T02:25:18;13.80;75.80
29663;DHT22;16578;53.266;7.920;2023-04-24T02:27:44;13.80;75.60
29663;DHT22;16578;53.266;7.920;2023-04-24T02:30:10;13.80;75.50
29663;DHT22;16578;53.266;7.920;2023-04-24T02:32:35;13.80;75.40
29663;DHT22;16578;53.266;7.920;2023-04-24T02:35:01;13.80;75.30
29663;DHT22;16578;53.266;7.920;2023-04-24T02:37:27;13.80;75.20
29663;DHT22;16578;53.266;7.920;2023-04-24T02:39:52;13.80;75.10
29663;DHT22;16578;53.266;7.920;2023-04-24T02:42:18;13.80;75.20
29663;DHT22;16578;53.266;7.920;2023-04-24T02:44:43;13.80;75.00
29663;DHT22;16578;53.266;7.920;2023-04-24T02:47:09;13.80;75.00
29663;DHT22;16578;53.266;7.920;2023-04-24T02:49:34;13.80;75.00
29663;DHT22;16578;53.266;7.920;2023-04-24T02:52:00;13.80;75.00
29663;DHT22;16578;53.266;7.920;2023-04-24T02:54:25;13.80;74.90
29663;DHT22;16578;53.266;7.920;2023-04-24T02:56:51;13.80;74.80
29663;DHT22;16578;53.266;7.920;2023-04-24T02:59:16;13.80;74.80
29663;DHT22;16578;53.266;7.920;2023-04-24T03:01:42;13.80;74.80
29663;DHT22;16578;53.266;7.920;2023-04-24T03:04:07;13.80;74.70
29663;DHT22;16578;53.266;7.920;2023-04-24T03:06:33;13.80;74.70
29663;DHT22;16578;53.266;7.920;2023-04-24T03:09:00;13.80;74.70
29663;DHT22;16578;53.266;7.920;2023-04-24T03:11:26;13.80;74.70
29663;DHT22;16578;53.266;7.920;2023-04-24T03:13:52;13.80;74.70
29663;DHT22;16578;53.266;7.920;2023-04-24T03:16:17;13.80;74.70
29663;DHT22;16578;53.266;7.920;2023-04-24T03:18:43;13.80;74.60
29663;DHT22;16578;53.266;7.920;2023-04-24T03:21:08;13.80;74.70
29663;DHT22;16578;53.266;7.920;2023-04-24T03:23:34;13.80;74.70
29663;DHT22;16578;53.266;7.920;2023-04-24T03:25:59;13.80;74.70
29663;DHT22;16578;53.266;7.920;2023-04-24T03:28:25;13.90;74.80
29663;DHT22;16578;53.266;7.920;2023-04-24T03:30:51;13.80;74.70
29663;DHT22;16578;53.266;7.920;2023-04-24T03:33:17;13.90;74.80
29663;DHT22;16578;53.266;7.920;2023-04-24T03:35:42;13.90;74.70
29663;DHT22;16578;53.266;7.920;2023-04-24T03:38:08;13.90;74.70
29663;DHT22;16578;53.266;7.920;2023-04-24T03:40:34;13.90;74.60
29663;DHT22;16578;53.266;7.920;2023-04-24T03:42:59;13.90;74.50
29663;DHT22;16578;53.266;7.920;2023-04-24T03:45:25;13.90;74.40
29663;DHT22;16578;53.266;7.920;2023-04-24T03:47:51;13.90;74.40
29663;DHT22;16578;53.266;7.920;2023-04-24T03:50:16;13.90;74.40
29663;DHT22;16578;53.266;7.920;2023-04-24T03:52:42;13.90;74.40
29663;DHT22;16578;53.266;7.920;2023-04-24T03:55:07;13.90;74.40
29663;DHT22;16578;53.266;7.920;2023-04-24T03:57:33;13.90;74.40
29663;DHT22;16578;53.266;7.920;2023-04-24T03:59:59;13.80;74.50
29663;DHT22;16578;53.266;7.920;2023-04-24T04:02:25;13.90;74.60
29663;DHT22;16578;53.266;7.920;2023-04-24T04:04:50;13.90;74.60
29663;DHT22;16578;53.266;7.920;2023-04-24T04:07:16;13.80;74.50
29663;DHT22;16578;53.266;7.920;2023-04-24T04:09:42;13.80;74.70
29663;DHT22;16578;53.266;7.920;2023-04-24T04:12:07;13.90;74.70
29663;DHT22;16578;53.266;7.920;2023-04-24T04:14:33;13.90;74.80
29663;DHT22;16578;53.266;7.920;2023-04-24T04:16:58;13.90;74.70
29663;DHT22;16578;53.266;7.920;2023-04-24T04:19:24;13.90;74.80
29663;DHT22;16578;53.266;7.920;2023-04-24T04:21:50;13.90;74.80
29663;DHT22;16578;53.266;7.920;2023-04-24T04:24:21;13.90;74.80
29663;DHT22;16578;53.266;7.920;2023-04-24T04:26:48;13.90;74.80
29663;DHT22;16578;53.266;7.920;2023-04-24T04:29:16;14.00;74.70
29663;DHT22;16578;53.266;7.920;2023-04-24T04:31:43;13.90;74.60
29663;DHT22;16578;53.266;7.920;2023-04-24T04:34:08;13.90;74.50
29663;DHT22;16578;53.266;7.920;2023-04-24T04:36:34;14.00;74.50
29663;DHT22;16578;53.266;7.920;2023-04-24T04:39:02;14.00;74.60
29663;DHT22;16578;53.266;7.920;2023-04-24T04:41:28;14.00;74.60
29663;DHT22;16578;53.266;7.920;2023-04-24T04:43:53;14.00;74.60
29663;DHT22;16578;53.266;7.920;2023-04-24T04:46:19;14.00;74.50
29663;DHT22;16578;53.266;7.920;2023-04-24T04:48:45;14.00;74.50
29663;DHT22;16578;53.266;7.920;2023-04-24T04:51:11;14.10;74.60
29663;DHT22;16578;53.266;7.920;2023-04-24T04:53:36;14.10;74.60
29663;DHT22;16578;53.266;7.920;2023-04-24T04:56:02;14.10;74.50
29663;DHT22;16578;53.266;7.920;2023-04-24T04:58:28;14.10;74.50
29663;DHT22;16578;53.266;7.920;2023-04-24T05:00:53;14.10;74.40
29663;DHT22;16578;53.266;7.920;2023-04-24T05:03:19;14.10;74.30
29663;DHT22;16578;53.266;7.920;2023-04-24T05:05:45;14.10;74.30
29663;DHT22;16578;53.266;7.920;2023-04-24T05:08:10;14.10;74.30
29663;DHT22;16578;53.266;7.920;2023-04-24T05:10:36;14.10;74.40
29663;DHT22;16578;53.266;7.920;2023-04-24T05:13:02;14.10;74.40
29663;DHT22;16578;53.266;7.920;2023-04-24T05:15:29;14.10;74.30
29663;DHT22;16578;53.266;7.920;2023-04-24T05:17:55;14.10;74.30
29663;DHT22;16578;53.266;7.920;2023-04-24T05:20:21;14.10;74.20
29663;DHT22;16578;53.266;7.920;2023-04-24T05:22:46;14.10;74.10
29663;DHT22;16578;53.266;7.920;2023-04-24T05:25:12;14.10;74.10
29663;DHT22;16578;53.266;7.920;2023-04-24T05:27:38;14.10;74.10
29663;DHT22;16578;53.266;7.920;2023-04-24T05:30:04;14.10;74.10
29663;DHT22;16578;53.266;7.920;2023-04-24T05:32:30;14.10;74.00
29663;DHT22;16578;53.266;7.920;2023-04-24T05:34:55;14.10;74.00
29663;DHT22;16578;53.266;7.920;2023-04-24T05:37:21;14.10;74.00
29663;DHT22;16578;53.266;7.920;2023-04-24T05:39:46;14.10;74.00
29663;DHT22;16578;53.266;7.920;2023-04-24T05:42:12;14.10;74.10
29663;DHT22;16578;53.266;7.920;2023-04-24T05:44:37;14.10;74.10
29663;DHT22;16578;53.266;7.920;2023-04-24T05:47:03;14.10;74.20
29663;DHT22;16578;53.266;7.920;2023-04-24T05:49:29;14.10;74.30
29663;DHT22;16578;53.266;7.920;2023-04-24T05:51:54;14.10;74.40
29663;DHT22;16578;53.266;7.920;2023-04-24T05:54:20;14.10;74.40
29663;DHT22;16578;53.266;7.920;2023-04-24T05:56:46;14.10;74.60
29663;DHT22;16578;53.266;7.920;2023-04-24T05:59:11;14.10;74.60
29663;DHT22;16578;53.266;7.920;2023-04-24T06:01:37;14.10;74.70
29663;DHT22;16578;53.266;7.920;2023-04-24T06:04:03;14.10;74.80
29663;DHT22;16578;53.266;7.920;2023-04-24T06:06:29;14.20;74.90
29663;DHT22;16578;53.266;7.920;2023-04-24T06:08:54;14.10;75.00
29663;DHT22;16578;53.266;7.920;2023-04-24T06:11:20;14.20;75.10
29663;DHT22;16578;53.266;7.920;2023-04-24T06:13:46;14.20;75.10
29663;DHT22;16578;53.266;7.920;2023-04-24T06:16:12;14.20;75.00
29663;DHT22;16578;53.266;7.920;2023-04-24T06:18:37;14.20;75.10
29663;DHT22;16578;53.266;7.920;2023-04-24T06:21:04;14.20;75.20
29663;DHT22;16578;53.266;7.920;2023-04-24T06:23:30;14.20;75.10
29663;DHT22;16578;53.266;7.920;2023-04-24T06:25:58;14.20;75.00
29663;DHT22;16578;53.266;7.920;2023-04-24T06:28:23;14.20;74.90
29663;DHT22;16578;53.266;7.920;2023-04-24T06:30:49;14.20;75.00
29663;DHT22;16578;53.266;7.920;2023-04-24T06:33:16;14.20;75.10
29663;DHT22;16578;53.266;7.920;2023-04-24T06:35:42;14.20;75.00
29663;DHT22;16578;53.266;7.920;2023-04-24T06:38:07;14.20;75.00
29663;DHT22;16578;53.266;7.920;2023-04-24T06:40:33;14.30;75.10
29663;DHT22;16578;53.266;7.920;2023-04-24T06:42:59;14.30;75.10
29663;DHT22;16578;53.266;7.920;2023-04-24T06:45:25;14.30;75.20
29663;DHT22;16578;53.266;7.920;2023-04-24T06:47:51;14.40;75.30
29663;DHT22;16578;53.266;7.920;2023-04-24T06:50:17;14.40;75.20
29663;DHT22;16578;53.266;7.920;2023-04-24T06:52:42;14.40;75.10
29663;DHT22;16578;53.266;7.920;2023-04-24T06:55:09;14.40;75.00
29663;DHT22;16578;53.266;7.920;2023-04-24T06:57:36;14.40;75.00
29663;DHT22;16578;53.266;7.920;2023-04-24T07:00:03;14.40;74.90
29663;DHT22;16578;53.266;7.920;2023-04-24T07:02:28;14.40;74.90
29663;DHT22;16578;53.266;7.920;2023-04-24T07:04:54;14.50;75.10
29663;DHT22;16578;53.266;7.920;2023-04-24T07:07:20;14.50;75.20
29663;DHT22;16578;53.266;7.920;2023-04-24T07:09:46;14.50;75.30
29663;DHT22;16578;53.266;7.920;2023-04-24T07:12:11;14.50;75.10
29663;DHT22;16578;53.266;7.920;2023-04-24T07:14:37;14.50;75.10
29663;DHT22;16578;53.266;7.920;2023-04-24T07:17:04;14.60;75.10
29663;DHT22;16578;53.266;7.920;2023-04-24T07:19:30;14.60;74.80
29663;DHT22;16578;53.266;7.920;2023-04-24T07:21:56;14.70;74.90
29663;DHT22;16578;53.266;7.920;2023-04-24T07:24:24;14.70;74.80
29663;DHT22;16578;53.266;7.920;2023-04-24T07:26:51;14.70;74.70
29663;DHT22;16578;53.266;7.920;2023-04-24T07:29:17;14.80;75.30
29663;DHT22;16578;53.266;7.920;2023-04-24T07:31:43;14.80;74.20
29663;DHT22;16578;53.266;7.920;2023-04-24T07:34:09;14.80;74.20
29663;DHT22;16578;53.266;7.920;2023-04-24T07:36:35;14.80;74.00
29663;DHT22;16578;53.266;7.920;2023-04-24T07:39:00;14.80;73.80
29663;DHT22;16578;53.266;7.920;2023-04-24T07:41:26;14.80;73.80
29663;DHT22;16578;53.266;7.920;2023-04-24T07:43:53;14.80;73.70
29663;DHT22;16578;53.266;7.920;2023-04-24T07:46:19;14.80;73.80
29663;DHT22;16578;53.266;7.920;2023-04-24T07:48:45;14.90;73.90
29663;DHT22;16578;53.266;7.920;2023-04-24T07:51:13;14.80;73.70
29663;DHT22;16578;53.266;7.920;2023-04-24T07:53:39;14.90;73.70
29663;DHT22;16578;53.266;7.920;2023-04-24T07:56:05;14.90;73.60
29663;DHT22;16578;53.266;7.920;2023-04-24T07:58:30;14.90;73.60
29663;DHT22;16578;53.266;7.920;2023-04-24T08:00:56;14.90;73.70
29663;DHT22;16578;53.266;7.920;2023-04-24T08:03:21;14.90;73.60
29663;DHT22;16578;53.266;7.920;2023-04-24T08:05:47;15.00;73.50
29663;DHT22;16578;53.266;7.920;2023-04-24T08:08:13;15.00;73.50
29663;DHT22;16578;53.266;7.920;2023-04-24T08:10:39;15.00;73.50
29663;DHT22;16578;53.266;7.920;2023-04-24T08:13:05;15.00;73.20
29663;DHT22;16578;53.266;7.920;2023-04-24T08:15:30;15.00;73.10
29663;DHT22;16578;53.266;7.920;2023-04-24T08:17:57;15.00;73.00
29663;DHT22;16578;53.266;7.920;2023-04-24T08:20:22;15.10;72.90
29663;DHT22;16578;53.266;7.920;2023-04-24T08:22:48;15.00;72.80
29663;DHT22;16578;53.266;7.920;2023-04-24T08:25:14;15.00;72.70
29663;DHT22;16578;53.266;7.920;2023-04-24T08:27:39;15.00;72.80
29663;DHT22;16578;53.266;7.920;2023-04-24T08:30:06;15.00;72.80
29663;DHT22;16578;53.266;7.920;2023-04-24T08:32:32;14.90;72.60
29663;DHT22;16578;53.266;7.920;2023-04-24T08:34:58;15.00;72.60
29663;DHT22;16578;53.266;7.920;2023-04-24T08:37:25;15.00;72.70
29663;DHT22;16578;53.266;7.920;2023-04-24T08:39:51;15.00;72.70
29663;DHT22;16578;53.266;7.920;2023-04-24T08:42:20;15.00;72.70
29663;DHT22;16578;53.266;7.920;2023-04-24T08:44:47;15.00;72.60
29663;DHT22;16578;53.266;7.920;2023-04-24T08:47:15;15.00;72.60
29663;DHT22;16578;53.266;7.920;2023-04-24T08:49:40;15.00;72.50
29663;DHT22;16578;53.266;7.920;2023-04-24T08:52:06;15.00;72.50
29663;DHT22;16578;53.266;7.920;2023-04-24T08:54:34;15.00;72.80
29663;DHT22;16578;53.266;7.920;2023-04-24T08:57:01;15.00;72.90
29663;DHT22;16578;53.266;7.920;2023-04-24T08:59:27;15.00;73.00
29663;DHT22;16578;53.266;7.920;2023-04-24T09:01:55;15.00;73.10
29663;DHT22;16578;53.266;7.920;2023-04-24T09:04:22;15.00;73.00
29663;DHT22;16578;53.266;7.920;2023-04-24T09:06:50;15.00;73.20
29663;DHT22;16578;53.266;7.920;2023-04-24T09:09:16;15.00;73.50
29663;DHT22;16578;53.266;7.920;2023-04-24T09:11:43;15.00;73.50
29663;DHT22;16578;53.266;7.920;2023-04-24T09:14:09;15.00;73.50
29663;DHT22;16578;53.266;7.920;2023-04-24T09:16:36;15.10;73.60
29663;DHT22;16578;53.266;7.920;2023-04-24T09:19:02;15.10;73.70
29663;DHT22;16578;53.266;7.920;2023-04-24T09:21:35;15.10;73.70
29663;DHT22;16578;53.266;7.920;2023-04-24T09:24:05;15.10;73.80
29663;DHT22;16578;53.266;7.920;2023-04-24T09:26:34;15.10;73.70
29663;DHT22;16578;53.266;7.920;2023-04-24T09:29:01;15.10;73.80
29663;DHT22;16578;53.266;7.920;2023-04-24T09:31:28;15.10;73.90
29663;DHT22;16578;53.266;7.920;2023-04-24T09:34:03;15.10;74.00
29663;DHT22;16578;53.266;7.920;2023-04-24T09:36:36;15.10;74.20
29663;DHT22;16578;53.266;7.920;2023-04-24T09:39:05;15.10;74.30
29663;DHT22;16578;53.266;7.920;2023-04-24T09:41:33;15.10;74.20
29663;DHT22;16578;53.266;7.920;2023-04-24T09:44:12;15.00;74.20
29663;DHT22;16578;53.266;7.920;2023-04-24T09:46:38;15.10;75.60
29663;DHT22;16578;53.266;7.920;2023-04-24T09:49:12;15.00;74.60
29663;DHT22;16578;53.266;7.920;2023-04-24T09:51:38;15.00;74.60
29663;DHT22;16578;53.266;7.920;2023-04-24T09:54:11;15.00;74.60
29663;DHT22;16578;53.266;7.920;2023-04-24T09:56:42;15.00;74.70
29663;DHT22;16578;53.266;7.920;2023-04-24T09:59:09;15.00;74.80
29663;DHT22;16578;53.266;7.920;2023-04-24T10:01:34;15.00;74.80
29663;DHT22;16578;53.266;7.920;2023-04-24T10:04:00;15.00;74.80
29663;DHT22;16578;53.266;7.920;2023-04-24T10:06:35;15.00;75.00
29663;DHT22;16578;53.266;7.920;2023-04-24T10:09:02;15.00;75.10
29663;DHT22;16578;53.266;7.920;2023-04-24T10:11:30;15.00;75.00
29663;DHT22;16578;53.266;7.920;2023-04-24T10:13:56;15.00;75.00
29663;DHT22;16578;53.266;7.920;2023-04-24T10:16:22;14.90;75.10
29663;DHT22;16578;53.266;7.920;2023-04-24T10:18:48;14.90;75.10
29663;DHT22;16578;53.266;7.920;2023-04-24T10:21:15;14.90;75.30
29663;DHT22;16578;53.266;7.920;2023-04-24T10:23:42;14.90;75.40
29663;DHT22;16578;53.266;7.920;2023-04-24T10:26:09;14.80;75.40
29663;DHT22;16578;53.266;7.920;2023-04-24T10:28:36;14.80;75.40
29663;DHT22;16578;53.266;7.920;2023-04-24T10:31:02;14.80;75.50
29663;DHT22;16578;53.266;7.920;2023-04-24T10:33:29;14.80;75.60
29663;DHT22;16578;53.266;7.920;2023-04-24T10:35:56;14.80;75.70
29663;DHT22;16578;53.266;7.920;2023-04-24T10:38:25;14.70;75.60
29663;DHT22;16578;53.266;7.920;2023-04-24T10:40:57;14.70;75.70
29663;DHT22;16578;53.266;7.920;2023-04-24T10:43:33;14.70;75.90
29663;DHT22;16578;53.266;7.920;2023-04-24T10:46:03;14.70;75.70
29663;DHT22;16578;53.266;7.920;2023-04-24T10:48:30;14.70;75.80
29663;DHT22;16578;53.266;7.920;2023-04-24T10:50:55;14.60;75.80
29663;DHT22;16578;53.266;7.920;2023-04-24T10:53:28;14.60;75.60
29663;DHT22;16578;53.266;7.920;2023-04-24T10:56:06;14.60;75.70
29663;DHT22;16578;53.266;7.920;2023-04-24T10:58:43;14.60;76.00
29663;DHT22;16578;53.266;7.920;2023-04-24T11:04:02;14.50;76.30
29663;DHT22;16578;53.266;7.920;2023-04-24T11:09:07;14.40;76.00
29663;DHT22;16578;53.266;7.920;2023-04-24T11:11:34;14.30;76.80
29663;DHT22;16578;53.266;7.920;2023-04-24T11:16:26;14.20;76.10
29663;DHT22;16578;53.266;7.920;2023-04-24T11:19:04;14.20;76.20
29663;DHT22;16578;53.266;7.920;2023-04-24T11:26:58;14.10;76.70
29663;DHT22;16578;53.266;7.920;2023-04-24T11:34:52;13.90;76.90
29663;DHT22;16578;53.266;7.920;2023-04-24T11:37:18;13.90;76.90
29663;DHT22;16578;53.266;7.920;2023-04-24T11:39:43;13.80;76.70
29663;DHT22;16578;53.266;7.920;2023-04-24T11:42:09;13.80;76.50
29663;DHT22;16578;53.266;7.920;2023-04-24T11:44:35;13.70;76.60
29663;DHT22;16578;53.266;7.920;2023-04-24T11:47:05;13.70;76.70
29663;DHT22;16578;53.266;7.920;2023-04-24T11:49:31;13.60;76.70
29663;DHT22;16578;53.266;7.920;2023-04-24T11:51:56;13.50;76.60
29663;DHT22;16578;53.266;7.920;2023-04-24T11:54:22;13.50;76.80
29663;DHT22;16578;53.266;7.920;2023-04-24T11:56:48;13.50;76.90
29663;DHT22;16578;53.266;7.920;2023-04-24T11:59:14;13.40;77.00
29663;DHT22;16578;53.266;7.920;2023-04-24T12:01:44;13.40;76.90
29663;DHT22;16578;53.266;7.920;2023-04-24T12:04:11;13.40;76.50
29663;DHT22;16578;53.266;7.920;2023-04-24T12:06:36;13.30;76.40
29663;DHT22;16578;53.266;7.920;2023-04-24T12:09:02;13.20;76.50
29663;DHT22;16578;53.266;7.920;2023-04-24T12:11:28;13.20;76.50
29663;DHT22;16578;53.266;7.920;2023-04-24T12:13:53;13.10;76.90
29663;DHT22;16578;53.266;7.920;2023-04-24T12:16:19;13.10;76.80
29663;DHT22;16578;53.266;7.920;2023-04-24T12:18:45;13.10;76.90
29663;DHT22;16578;53.266;7.920;2023-04-24T12:21:29;13.00;77.00
29663;DHT22;16578;53.266;7.920;2023-04-24T12:23:57;13.00;77.20
29663;DHT22;16578;53.266;7.920;2023-04-24T12:26:23;13.00;77.10
29663;DHT22;16578;53.266;7.920;2023-04-24T12:28:49;13.00;77.20
29663;DHT22;16578;53.266;7.920;2023-04-24T12:31:16;13.00;77.40
29663;DHT22;16578;53.266;7.920;2023-04-24T12:33:42;13.00;77.50
29663;DHT22;16578;53.266;7.920;2023-04-24T12:36:11;12.90;77.30
29663;DHT22;16578;53.266;7.920;2023-04-24T12:38:37;12.90;77.40
29663;DHT22;16578;53.266;7.920;2023-04-24T12:41:08;12.90;77.50
29663;DHT22;16578;53.266;7.920;2023-04-24T12:43:34;12.90;77.50
29663;DHT22;16578;53.266;7.920;2023-04-24T12:46:00;12.90;77.80
29663;DHT22;16578;53.266;7.920;2023-04-24T12:48:28;12.90;78.00
29663;DHT22;16578;53.266;7.920;2023-04-24T12:50:53;12.90;78.00
29663;DHT22;16578;53.266;7.920;2023-04-24T12:53:20;12.90;77.90
29663;DHT22;16578;53.266;7.920;2023-04-24T12:55:46;12.90;77.90
29663;DHT22;16578;53.266;7.920;2023-04-24T12:58:20;12.90;78.00
29663;DHT22;16578;53.266;7.920;2023-04-24T13:00:46;12.90;78.00
29663;DHT22;16578;53.266;7.920;2023-04-24T13:03:12;12.90;78.60
29663;DHT22;16578;53.266;7.920;2023-04-24T13:05:38;12.90;77.90
29663;DHT22;16578;53.266;7.920;2023-04-24T13:08:03;13.00;78.00
29663;DHT22;16578;53.266;7.920;2023-04-24T13:10:29;13.00;77.80
29663;DHT22;16578;53.266;7.920;2023-04-24T13:12:55;13.00;77.60
29663;DHT22;16578;53.266;7.920;2023-04-24T13:15:20;13.00;77.50
29663;DHT22;16578;53.266;7.920;2023-04-24T13:17:46;13.00;77.30
29663;DHT22;16578;53.266;7.920;2023-04-24T13:20:12;13.00;77.40
29663;DHT22;16578;53.266;7.920;2023-04-24T13:22:37;12.90;77.30
29663;DHT22;16578;53.266;7.920;2023-04-24T13:25:03;12.90;77.40
29663;DHT22;16578;53.266;7.920;2023-04-24T13:27:31;12.90;77.30
29663;DHT22;16578;53.266;7.920;2023-04-24T13:29:56;12.90;77.40
29663;DHT22;16578;53.266;7.920;2023-04-24T13:32:22;12.90;77.30
29663;DHT22;16578;53.266;7.920;2023-04-24T13:34:47;12.90;77.20
29663;DHT22;16578;53.266;7.920;2023-04-24T13:37:13;12.90;77.40
29663;DHT22;16578;53.266;7.920;2023-04-24T13:39:39;12.90;77.50
29663;DHT22;16578;53.266;7.920;2023-04-24T13:42:06;12.90;77.50
29663;DHT22;16578;53.266;7.920;2023-04-24T13:44:32;13.00;77.50
29663;DHT22;16578;53.266;7.920;2023-04-24T13:46:58;13.00;77.60
29663;DHT22;16578;53.266;7.920;2023-04-24T13:49:25;13.00;77.70
29663;DHT22;16578;53.266;7.920;2023-04-24T13:51:51;13.00;77.90
29663;DHT22;16578;53.266;7.920;2023-04-24T13:54:16;13.10;78.00
29663;DHT22;16578;53.266;7.920;2023-04-24T13:56:42;13.10;78.00
29663;DHT22;16578;53.266;7.920;2023-04-24T13:59:08;13.10;77.90
29663;DHT22;16578;53.266;7.920;2023-04-24T14:01:34;13.20;78.00
29663;DHT22;16578;53.266;7.920;2023-04-24T14:03:59;13.20;77.70
29663;DHT22;16578;53.266;7.920;2023-04-24T14:06:25;13.20;77.50
29663;DHT22;16578;53.266;7.920;2023-04-24T14:08:51;13.20;77.40
29663;DHT22;16578;53.266;7.920;2023-04-24T14:11:18;13.20;77.10
29663;DHT22;16578;53.266;7.920;2023-04-24T14:13:44;13.20;77.00
29663;DHT22;16578;53.266;7.920;2023-04-24T14:16:10;13.20;76.90
29663;DHT22;16578;53.266;7.920;2023-04-24T14:18:36;13.20;76.70
29663;DHT22;16578;53.266;7.920;2023-04-24T14:21:05;13.20;76.60
29663;DHT22;16578;53.266;7.920;2023-04-24T14:23:30;13.20;76.80
29663;DHT22;16578;53.266;7.920;2023-04-24T14:25:57;13.20;77.20
29663;DHT22;16578;53.266;7.920;2023-04-24T14:28:23;13.20;77.10
29663;DHT22;16578;53.266;7.920;2023-04-24T14:30:48;13.20;77.20
29663;DHT22;16578;53.266;7.920;2023-04-24T14:33:14;13.20;77.30
29663;DHT22;16578;53.266;7.920;2023-04-24T14:35:41;13.30;77.30
29663;DHT22;16578;53.266;7.920;2023-04-24T14:38:10;13.30;76.80
29663;DHT22;16578;53.266;7.920;2023-04-24T14:40:36;13.30;76.70
29663;DHT22;16578;53.266;7.920;2023-04-24T14:43:02;13.30;76.70
29663;DHT22;16578;53.266;7.920;2023-04-24T14:45:27;13.30;76.70
29663;DHT22;16578;53.266;7.920;2023-04-24T14:47:53;13.30;76.60
29663;DHT22;16578;53.266;7.920;2023-04-24T14:50:20;13.30;76.00
29663;DHT22;16578;53.266;7.920;2023-04-24T14:52:46;13.20;75.80
29663;DHT22;16578;53.266;7.920;2023-04-24T14:55:11;13.20;75.60
29663;DHT22;16578;53.266;7.920;2023-04-24T14:57:37;13.10;75.30
29663;DHT22;16578;53.266;7.920;2023-04-24T15:00:07;13.20;75.50
29663;DHT22;16578;53.266;7.920;2023-04-24T15:02:35;13.10;75.50
29663;DHT22;16578;53.266;7.920;2023-04-24T15:05:05;13.10;75.90
29663;DHT22;16578;53.266;7.920;2023-04-24T15:07:31;13.10;76.00
29663;DHT22;16578;53.266;7.920;2023-04-24T15:09:57;13.10;76.00
29663;DHT22;16578;53.266;7.920;2023-04-24T15:12:22;13.10;76.10
29663;DHT22;16578;53.266;7.920;2023-04-24T15:14:48;13.10;76.00
29663;DHT22;16578;53.266;7.920;2023-04-24T15:17:14;13.10;75.70
29663;DHT22;16578;53.266;7.920;2023-04-24T15:19:39;13.10;75.50
29663;DHT22;16578;53.266;7.920;2023-04-24T15:22:05;13.00;75.60
29663;DHT22;16578;53.266;7.920;2023-04-24T15:24:30;13.00;75.80
29663;DHT22;16578;53.266;7.920;2023-04-24T15:26:56;13.00;75.90
29663;DHT22;16578;53.266;7.920;2023-04-24T15:29:22;13.00;76.00
29663;DHT22;16578;53.266;7.920;2023-04-24T15:31:48;13.00;75.90
29663;DHT22;16578;53.266;7.920;2023-04-24T15:34:13;13.00;76.00
29663;DHT22;16578;53.266;7.920;2023-04-24T15:36:39;13.00;76.10
29663;DHT22;16578;53.266;7.920;2023-04-24T15:39:05;13.00;75.90
29663;DHT22;16578;53.266;7.920;2023-04-24T15:41:30;13.00;76.10
29663;DHT22;16578;53.266;7.920;2023-04-24T15:43:57;13.00;76.10